createdAt,value
2018-10-06T01:21:36.664Z,14.10
2018-10-06T01:24:05.851Z,14.10
2018-10-06T01:26:35.020Z,14.10
2018-10-06T01:29:06.287Z,14.00
2018-10-06T01:31:35.378Z,14.00
2018-10-06T01:34:05.407Z,13.90
2018-10-06T01:36:34.683Z,13.90
2018-10-06T01:39:04.494Z,13.90
2018-10-06T01:41:33.739Z,13.90
2018-10-06T01:44:02.919Z,14.00
2018-10-06T01:46:32.364Z,14.00
2018-10-06T01:49:01.415Z,14.00
2018-10-06T01:51:31.209Z,14.00
2018-10-06T01:54:00.418Z,13.90
2018-10-06T01:56:29.483Z,14.00
2018-10-06T01:59:00.200Z,13.90
2018-10-06T02:01:30.254Z,13.80
2018-10-06T02:03:59.869Z,13.90
2018-10-06T02:06:29.083Z,13.90
2018-10-06T02:08:58.408Z,13.90
2018-10-06T02:11:27.475Z,13.90
2018-10-06T02:13:56.789Z,16.10
2018-10-06T02:16:28.830Z,13.80
2018-10-06T02:18:58.285Z,13.70
2018-10-06T02:21:27.416Z,13.70
2018-10-06T02:23:56.707Z,13.70
2018-10-06T02:26:26.488Z,13.70
2018-10-06T02:28:55.659Z,13.80
2018-10-06T02:31:24.861Z,13.90
2018-10-06T02:33:54.081Z,16.00
2018-10-06T02:36:23.519Z,16.00
2018-10-06T02:38:52.831Z,13.90
2018-10-06T02:41:22.475Z,13.90
2018-10-06T02:43:51.531Z,13.90
2018-10-06T02:46:20.793Z,13.80
2018-10-06T02:48:50.524Z,13.80
2018-10-06T02:51:19.692Z,13.90
2018-10-06T02:53:49.373Z,13.90
2018-10-06T02:56:19.515Z,13.70
2018-10-06T02:58:48.723Z,13.80
2018-10-06T03:01:17.968Z,13.70
2018-10-06T03:03:47.075Z,13.80
2018-10-06T03:06:16.190Z,13.80
2018-10-06T03:08:45.376Z,13.70
2018-10-06T03:11:14.619Z,13.70
2018-10-06T03:13:45.487Z,13.60
2018-10-06T03:16:16.995Z,13.60
2018-10-06T03:18:46.225Z,13.60
2018-10-06T03:21:15.392Z,13.50
2018-10-06T03:23:45.795Z,13.60
2018-10-06T03:26:14.879Z,13.60
2018-10-06T03:28:44.004Z,13.60
2018-10-06T03:31:13.201Z,13.60
2018-10-06T03:33:42.449Z,13.60
2018-10-06T03:36:11.546Z,13.50
2018-10-06T03:38:41.162Z,13.50
2018-10-06T03:41:10.330Z,16.50
2018-10-06T03:43:40.242Z,15.60
2018-10-06T03:46:11.426Z,13.50
2018-10-06T03:48:40.654Z,13.50
2018-10-06T03:51:09.744Z,13.40
2018-10-06T03:53:39.693Z,13.10
2018-10-06T03:56:09.010Z,13.50
2018-10-06T03:58:38.235Z,13.50
2018-10-06T04:01:07.347Z,13.40
2018-10-06T04:03:36.892Z,13.40
2018-10-06T04:06:06.001Z,13.40
2018-10-06T04:08:35.534Z,13.40
2018-10-06T04:11:05.141Z,13.40
2018-10-06T04:13:34.951Z,13.40
2018-10-06T04:16:04.255Z,13.40
2018-10-06T04:18:33.463Z,13.40
2018-10-06T04:21:04.915Z,13.30
2018-10-06T04:23:35.209Z,13.40
2018-10-06T04:26:04.251Z,13.40
2018-10-06T04:28:34.346Z,13.40
2018-10-06T04:31:06.339Z,10.80
2018-10-06T04:33:41.225Z,13.20
2018-10-06T04:36:11.118Z,13.20
2018-10-06T04:38:40.788Z,13.20
2018-10-06T04:41:10.117Z,13.20
2018-10-06T04:43:39.186Z,13.30
2018-10-06T04:46:12.175Z,13.40
2018-10-06T04:48:41.829Z,13.50
2018-10-06T04:51:11.084Z,13.50
2018-10-06T04:53:40.428Z,13.50
2018-10-06T04:56:09.676Z,13.50
2018-10-06T04:58:39.459Z,13.60
2018-10-06T05:01:10.018Z,16.10
2018-10-06T05:03:39.277Z,13.50
2018-10-06T05:06:08.591Z,13.40
2018-10-06T05:08:38.619Z,13.50
2018-10-06T05:11:12.293Z,13.50
2018-10-06T05:13:41.884Z,11.50
2018-10-06T05:16:11.582Z,14.60
2018-10-06T05:18:40.701Z,12.00
2018-10-06T05:21:09.970Z,13.70
2018-10-06T05:23:40.630Z,14.30
2018-10-06T05:26:10.626Z,13.70
2018-10-06T05:28:39.873Z,13.70
2018-10-06T05:31:09.248Z,13.70
2018-10-06T05:33:38.401Z,13.80
2018-10-06T05:36:08.019Z,13.90
2018-10-06T05:38:37.128Z,13.90
2018-10-06T05:41:06.499Z,14.00
2018-10-06T05:43:35.795Z,14.00
2018-10-06T05:46:04.947Z,14.10
2018-10-06T05:48:36.241Z,11.20
2018-10-06T05:51:05.793Z,14.30
2018-10-06T05:53:34.861Z,14.30
2018-10-06T05:56:04.266Z,14.40
2018-10-06T05:58:35.447Z,14.50
2018-10-06T06:01:06.276Z,14.50
2018-10-06T06:03:35.362Z,14.60
2018-10-06T06:06:05.518Z,14.60
2018-10-06T06:08:34.594Z,14.60
2018-10-06T06:11:04.047Z,16.80
2018-10-06T06:13:37.809Z,14.60
2018-10-06T06:16:08.176Z,14.70
2018-10-06T06:18:37.370Z,14.80
2018-10-06T06:21:07.534Z,14.70
2018-10-06T06:23:36.732Z,14.80
2018-10-06T06:26:07.936Z,14.90
2018-10-06T06:28:37.305Z,14.70
2018-10-06T06:31:07.007Z,15.10
2018-10-06T06:33:36.632Z,15.00
2018-10-06T06:36:05.803Z,15.10
2018-10-06T06:38:35.755Z,15.10
2018-10-06T06:41:05.064Z,15.20
2018-10-06T06:43:35.820Z,15.30
2018-10-06T06:46:05.236Z,15.20
2018-10-06T06:48:34.827Z,15.30
2018-10-06T06:51:05.403Z,15.30
2018-10-06T06:55:05.305Z,15.40
2018-10-06T06:57:36.475Z,15.40
2018-10-06T07:00:08.398Z,15.50
2018-10-06T07:02:39.473Z,15.40
2018-10-06T07:05:13.037Z,15.60
2018-10-06T07:07:42.941Z,15.60
2018-10-06T07:10:12.125Z,15.60
2018-10-06T07:12:42.494Z,15.60
2018-10-06T07:15:12.163Z,15.60
2018-10-06T07:17:41.963Z,15.70
2018-10-06T07:20:11.255Z,15.70
2018-10-06T07:22:41.563Z,15.80
2018-10-06T07:25:10.812Z,15.90
2018-10-06T07:27:40.606Z,16.00
2018-10-06T07:30:12.543Z,16.00
2018-10-06T07:32:48.659Z,16.10
2018-10-06T07:35:18.112Z,16.10
2018-10-06T07:37:48.725Z,16.20
2018-10-06T07:40:17.861Z,16.30
2018-10-06T07:42:47.440Z,16.20
2018-10-06T07:45:18.861Z,16.20
2018-10-06T07:47:48.168Z,16.20
2018-10-06T07:50:18.079Z,16.10
2018-10-06T07:52:48.745Z,16.10
2018-10-06T07:55:18.178Z,16.00
2018-10-06T07:57:47.699Z,18.50
2018-10-06T08:00:17.664Z,15.90
2018-10-06T08:02:46.799Z,15.80
2018-10-06T08:05:16.493Z,15.70
2018-10-06T08:07:46.074Z,15.80
2018-10-06T08:10:17.885Z,15.70
2018-10-06T08:12:50.275Z,15.80
2018-10-06T08:15:19.760Z,15.90
2018-10-06T08:17:49.097Z,16.10
2018-10-06T08:20:18.380Z,16.20
2018-10-06T08:22:47.849Z,16.20
2018-10-06T08:25:20.511Z,16.20
2018-10-06T08:27:49.871Z,16.20
2018-10-06T08:30:21.348Z,16.20
2018-10-06T08:32:50.976Z,16.40
2018-10-06T08:35:20.782Z,16.60
2018-10-06T08:37:51.438Z,16.80
2018-10-06T08:40:22.352Z,17.00
2018-10-06T08:42:51.925Z,17.00
2018-10-06T08:45:22.202Z,20.10
2018-10-06T08:47:51.704Z,17.10
2018-10-06T08:50:20.829Z,17.10
2018-10-06T08:52:50.457Z,17.00
2018-10-06T08:55:20.203Z,17.20
2018-10-06T08:57:49.337Z,17.10
2018-10-06T09:00:18.968Z,17.30
2018-10-06T09:02:53.897Z,17.30
2018-10-06T09:05:24.087Z,16.00
2018-10-06T09:07:54.751Z,17.30
2018-10-06T09:10:24.259Z,17.50
2018-10-06T09:12:54.481Z,17.50
2018-10-06T09:15:26.559Z,17.50
2018-10-06T09:17:56.341Z,17.60
2018-10-06T09:20:27.553Z,17.70
2018-10-06T09:22:57.668Z,17.80
2018-10-06T09:25:26.856Z,17.80
2018-10-06T09:27:59.649Z,17.90
2018-10-06T09:30:29.427Z,18.90
2018-10-06T09:32:59.262Z,18.00
2018-10-06T09:35:30.413Z,18.10
2018-10-06T09:38:00.065Z,18.20
2018-10-06T09:40:29.608Z,18.30
2018-10-06T09:43:06.025Z,18.30
2018-10-06T09:45:36.337Z,18.40
2018-10-06T09:48:07.881Z,18.40
2018-10-06T09:50:38.184Z,18.50
2018-10-06T09:53:08.243Z,18.40
2018-10-06T09:55:41.131Z,18.60
2018-10-06T09:58:11.300Z,17.70
2018-10-06T10:02:52.810Z,18.80
2018-10-06T10:05:27.958Z,18.80
2018-10-06T10:07:59.085Z,20.40
2018-10-06T10:10:28.349Z,19.10
2018-10-06T10:13:00.987Z,19.30
2018-10-06T10:15:31.489Z,19.30
2018-10-06T10:18:01.395Z,19.40
2018-10-06T10:20:33.512Z,19.30
2018-10-06T10:23:05.478Z,19.40
2018-10-06T10:28:25.020Z,19.60
2018-10-06T10:30:57.990Z,19.70
2018-10-06T10:33:27.254Z,19.90
2018-10-06T10:35:59.843Z,20.00
2018-10-06T10:38:35.481Z,19.60
2018-10-06T10:41:07.214Z,20.10
2018-10-06T10:43:39.423Z,20.10
2018-10-06T10:46:09.774Z,21.60
2018-10-06T10:48:41.345Z,20.50
2018-10-06T10:51:12.291Z,20.80
2018-10-06T10:53:41.419Z,21.10
2018-10-06T18:49:23.524Z,19.10
2018-10-06T18:51:53.979Z,19.00
2018-10-06T21:52:50.304Z,17.40
2018-10-06T21:55:22.208Z,17.50
2018-10-06T21:57:53.200Z,17.40
